createdAt,value
2022-12-20T00:04:54.879Z,51.60
2022-12-20T00:19:58.230Z,53.20
2022-12-20T00:35:01.440Z,46.20
2022-12-20T00:50:05.265Z,43.10
2022-12-20T01:05:08.868Z,46.80
2022-12-20T01:20:13.625Z,47.50
2022-12-20T01:35:16.949Z,46.30
2022-12-20T01:50:20.681Z,49.20
2022-12-20T02:05:24.038Z,46.10
2022-12-20T02:20:41.285Z,56.60
2022-12-20T02:35:44.478Z,54.00
2022-12-20T02:50:52.972Z,66.30
2022-12-20T03:05:57.253Z,59.00
2022-12-20T03:21:00.849Z,58.90
2022-12-20T03:36:04.392Z,64.60
2022-12-20T03:51:07.778Z,58.20
2022-12-20T04:06:11.620Z,61.80
2022-12-20T04:21:16.645Z,58.70
2022-12-20T04:36:22.320Z,60.50
2022-12-20T04:51:28.045Z,58.50
2022-12-20T05:06:31.407Z,60.60
2022-12-20T05:21:53.446Z,60.20
2022-12-20T05:36:56.978Z,66.10
2022-12-20T05:52:03.051Z,58.10
2022-12-20T06:07:06.777Z,49.30
2022-12-20T06:22:10.503Z,59.10
2022-12-20T06:37:26.922Z,61.20
2022-12-20T06:52:30.599Z,64.60
2022-12-20T07:07:40.206Z,60.50
2022-12-20T07:22:48.952Z,60.80
2022-12-20T07:37:52.263Z,57.70
2022-12-20T07:52:56.186Z,62.20
2022-12-20T08:08:00.287Z,56.20
2022-12-20T08:23:04.742Z,55.80
2022-12-20T08:38:08.115Z,51.20
2022-12-20T08:53:11.703Z,51.50
2022-12-20T09:08:16.697Z,60.00
2022-12-20T09:23:20.051Z,57.70
2022-12-20T09:38:23.312Z,50.10
2022-12-20T09:53:48.818Z,63.60
2022-12-20T10:09:02.409Z,56.70
2022-12-20T10:24:30.617Z,72.50
2022-12-20T10:39:47.370Z,54.10
2022-12-20T10:54:50.661Z,53.60
2022-12-20T11:09:59.923Z,47.10
2022-12-20T11:25:24.148Z,54.80
2022-12-20T11:40:35.596Z,71.10
2022-12-20T11:55:43.314Z,53.70
2022-12-20T12:26:02.474Z,67.80
2022-12-20T12:41:34.306Z,63.60
2022-12-20T12:56:49.047Z,92.20
2022-12-20T13:12:00.405Z,77.20
2022-12-20T13:27:23.828Z,68.30
2022-12-20T13:42:39.014Z,103.00
2022-12-20T13:57:45.425Z,104.10
2022-12-20T14:12:53.994Z,71.80
2022-12-20T14:27:58.306Z,64.20
2022-12-20T14:43:15.489Z,67.10
2022-12-20T14:58:31.617Z,73.30
2022-12-20T15:13:39.106Z,108.20
2022-12-20T15:28:42.731Z,88.30
2022-12-20T15:43:46.710Z,71.40
2022-12-20T15:58:52.904Z,97.20
2022-12-20T16:14:00.294Z,88.10
2022-12-20T16:29:04.203Z,64.50
2022-12-20T16:44:13.884Z,81.60
2022-12-20T16:59:20.827Z,70.30
2022-12-20T17:14:24.427Z,71.30
2022-12-20T17:29:28.098Z,93.90
2022-12-20T17:44:32.087Z,75.00
2022-12-20T17:59:35.476Z,86.30
2022-12-20T18:14:39.331Z,87.10
2022-12-20T18:29:42.735Z,90.10
2022-12-20T18:44:47.542Z,92.90
2022-12-20T18:59:51.603Z,77.40
2022-12-20T19:14:55.874Z,97.40
2022-12-20T19:29:59.336Z,96.20
2022-12-20T19:45:03.343Z,82.20
2022-12-20T20:00:08.962Z,73.80
2022-12-20T20:15:14.990Z,70.90
2022-12-20T20:30:18.735Z,70.60
2022-12-20T20:45:22.501Z,67.60
2022-12-20T21:00:26.685Z,64.70
2022-12-20T21:15:30.083Z,67.10
2022-12-20T21:30:33.454Z,56.80
2022-12-20T21:45:36.693Z,67.30
2022-12-20T22:00:39.957Z,67.80
2022-12-20T22:15:43.311Z,68.70
2022-12-20T22:30:46.854Z,65.70
2022-12-20T22:46:00.346Z,60.90
2022-12-20T23:01:06.293Z,60.90
2022-12-20T23:16:12.598Z,63.40
2022-12-20T23:31:15.982Z,58.70
2022-12-20T23:46:20.668Z,61.90
